Time;durP1;ratioP1;P1;durP2;ratioP2;P2;SDS_P1;SDS_P2;PMS_P1;PMS_P2;Temp;Humidity;BMP_temperature;BMP_pressure;BME280_temperature;BME280_humidity;BME280_pressure;Samples;Min_cycle;Max_cycle;Signal;HPM_P1;HPM_P2
2024/03/01 00:01:17;;;;;;;51.2;32.4;;;;;;;8.01;92.56;98423.333333333;;;;
2024/03/01 00:12:17;;;;;;;52;31.3;;;;;;;7.92;92.56;98421.666666667;;;;
2024/03/01 00:23:17;;;;;;;52;31.3;;;;;;;7.91;92.55;98396.666666667;;;;
2024/03/01 00:33:17;;;;;;;52;31.3;;;;;;;7.84;92.07;98391.666666667;;;;
2024/03/01 00:44:17;;;;;;;48.2;28.9;;;;;;;7.73;92.86;98390;;;;
2024/03/01 00:54:17;;;;;;;48.2;28.9;;;;;;;7.88;92.84;98375;;;;
2024/03/01 01:05:17;;;;;;;48.2;28.9;;;;;;;8.04;92.44;98365;;;;
2024/03/01 01:15:17;;;;;;;45.5;28.9;;;;;;;7.78;92.32;98350;;;;
2024/03/01 01:25:18;;;;;;;45.5;28.9;;;;;;;7.89;92.49;98336.666666667;;;;
2024/03/01 01:36:17;;;;;;;45.5;28.9;;;;;;;7.84;91.89;98318.333333333;;;;
2024/03/01 01:47:17;;;;;;;46.8;29;;;;;;;7.82;91.94;98318.333333333;;;;
2024/03/01 01:58:17;;;;;;;46.8;29;;;;;;;7.78;91.6;98305;;;;
2024/03/01 02:08:17;;;;;;;42.3;26.4;;;;;;;7.86;92.08;98300;;;;
2024/03/01 02:18:17;;;;;;;42.3;26.4;;;;;;;7.95;91.42;98290;;;;
2024/03/01 02:29:17;;;;;;;42.3;26.4;;;;;;;7.69;91.37;98263.333333333;;;;
2024/03/01 02:39:17;;;;;;;39.9;25.3;;;;;;;7.45;91.21;98266.666666667;;;;
2024/03/01 02:50:17;;;;;;;39.9;25.3;;;;;;;7.49;91.63;98253.333333333;;;;
2024/03/01 03:00:17;;;;;;;39.9;25.3;;;;;;;7.41;91.25;98250;;;;
2024/03/01 03:10:17;;;;;;;39.5;23.7;;;;;;;7.43;91.42;98245;;;;
2024/03/01 03:21:17;;;;;;;39.5;23.7;;;;;;;6.98;91.71;98233.333333333;;;;
2024/03/01 03:31:17;;;;;;;39.5;23.7;;;;;;;7.19;91.86;98233.333333333;;;;
2024/03/01 03:42:17;;;;;;;33.2;23.3;;;;;;;7.01;91.68;98225;;;;
2024/03/01 03:53:18;;;;;;;33.2;23.3;;;;;;;6.99;91.47;98225;;;;
2024/03/01 04:03:17;;;;;;;33.2;23.3;;;;;;;6.92;90.98;98236.666666667;;;;
2024/03/01 04:14:17;;;;;;;35.4;23.9;;;;;;;6.88;91.64;98241.666666667;;;;
2024/03/01 04:25:17;;;;;;;35.4;23.9;;;;;;;6.55;91.94;98246.666666667;;;;
2024/03/01 04:35:17;;;;;;;35.4;23.9;;;;;;;6.8;92.17;98241.666666667;;;;
2024/03/01 04:45:18;;;;;;;35.3;21.4;;;;;;;6.86;91.7;98238.333333333;;;;
2024/03/01 04:56:17;;;;;;;35.3;21.4;;;;;;;6.77;90.59;98223.333333333;;;;
2024/03/01 05:07:18;;;;;;;37.8;22.3;;;;;;;6.77;91.12;98205;;;;
2024/03/01 05:17:17;;;;;;;37.8;22.3;;;;;;;6.61;91.87;98215;;;;
2024/03/01 05:28:17;;;;;;;37.8;22.3;;;;;;;6.45;92.76;98231.666666667;;;;
2024/03/01 05:39:18;;;;;;;35.4;23.7;;;;;;;6.39;92.21;98226.666666667;;;;
2024/03/01 05:50:17;;;;;;;35.4;23.7;;;;;;;6.43;92.65;98253.333333333;;;;
2024/03/01 06:01:18;;;;;;;35.4;23.7;;;;;;;6.44;91.87;98271.666666667;;;;
2024/03/01 06:11:17;;;;;;;34.2;23.2;;;;;;;6.67;91.38;98258.333333333;;;;
2024/03/01 06:22:17;;;;;;;34.2;23.2;;;;;;;6.64;91.01;98235;;;;
2024/03/01 06:32:17;;;;;;;34.2;23.2;;;;;;;6.36;90.68;98233.333333333;;;;
2024/03/01 06:43:17;;;;;;;31.6;21.2;;;;;;;6.63;90.83;98245;;;;
2024/03/01 06:54:17;;;;;;;31.6;21.2;;;;;;;6.31;91.08;98216;;;;
2024/03/01 07:05:17;;;;;;;31.6;21.2;;;;;;;6.49;91.49;98212.5;;;;
2024/03/01 07:16:17;;;;;;;32.9;22;;;;;;;6.72;91.55;98220;;;;
2024/03/01 07:27:17;;;;;;;32.9;22;;;;;;;6.66;92.45;98225;;;;
2024/03/01 07:38:17;;;;;;;35.8;24.3;;;;;;;7.2;92.02;98225;;;;
2024/03/01 07:49:17;;;;;;;35.8;24.3;;;;;;;7.58;90.29;98215;;;;
2024/03/01 08:00:17;;;;;;;35.8;24.3;;;;;;;7.34;90.55;98215;;;;
2024/03/01 08:10:17;;;;;;;47;28.4;;;;;;;7.1;91.15;98212.5;;;;
2024/03/01 08:21:17;;;;;;;47;28.4;;;;;;;7.74;90.19;98200;;;;
2024/03/01 08:32:17;;;;;;;47;28.4;;;;;;;8.05;89.32;98195;;;;
2024/03/01 08:42:17;;;;;;;45.1;31.1;;;;;;;8.26;88.6;98190;;;;
2024/03/01 08:53:17;;;;;;;45.1;31.1;;;;;;;8.61;87.52;98192.5;;;;
2024/03/01 09:03:17;;;;;;;45.1;31.1;;;;;;;9;86.52;98190;;;;
2024/03/01 09:14:17;;;;;;;47.7;32.6;;;;;;;8.88;86.92;98190;;;;
2024/03/01 09:25:17;;;;;;;47.7;32.6;;;;;;;9.19;86.33;98195;;;;
2024/03/01 09:35:17;;;;;;;47.7;32.6;;;;;;;9.41;85.58;98205;;;;
2024/03/01 09:46:17;;;;;;;48.1;32.8;;;;;;;9.92;83.93;98218;;;;
2024/03/01 09:57:17;;;;;;;48.1;32.8;;;;;;;9.71;83.93;98208;;;;
2024/03/01 10:07:17;;;;;;;48.3;37.1;;;;;;;9.37;84.79;98186;;;;
2024/03/01 10:18:17;;;;;;;48.3;37.1;;;;;;;9.67;83.72;98162;;;;
2024/03/01 10:28:17;;;;;;;48.3;37.1;;;;;;;10.17;83.34;98166;;;;
2024/03/01 10:39:17;;;;;;;50.2;35;;;;;;;10.03;83.27;98170;;;;
2024/03/01 10:50:17;;;;;;;50.2;35;;;;;;;10.34;81.96;98164;;;;
2024/03/01 11:01:17;;;;;;;50.2;35;;;;;;;10.67;81.48;98156;;;;
2024/03/01 11:11:17;;;;;;;48.9;40.9;;;;;;;11.29;79.8;98126;;;;
2024/03/01 11:22:17;;;;;;;48.9;40.9;;;;;;;11.88;77.72;98116;;;;
2024/03/01 11:33:17;;;;;;;48.9;40.9;;;;;;;12.07;77.18;98116;;;;
2024/03/01 11:44:18;;;;;;;48.8;40.6;;;;;;;12.74;75.08;98116;;;;
2024/03/01 11:55:17;;;;;;;48.8;40.6;;;;;;;12.84;74.51;98096;;;;
2024/03/01 12:06:17;;;;;;;43.8;39;;;;;;;13.31;74.33;98084;;;;
2024/03/01 12:17:18;;;;;;;43.8;39;;;;;;;13.59;73.68;98094;;;;
2024/03/01 12:28:17;;;;;;;43.8;39;;;;;;;13.78;73.23;98074;;;;
2024/03/01 12:39:18;;;;;;;45.5;35.8;;;;;;;13.87;71.72;98066;;;;
2024/03/01 12:50:18;;;;;;;45.5;35.8;;;;;;;13.79;72.08;98066;;;;
2024/03/01 13:01:17;;;;;;;45.5;35.8;;;;;;;13.61;72.88;98062;;;;
2024/03/01 13:12:17;;;;;;;39.2;34.2;;;;;;;13.31;73.2;98054;;;;
2024/03/01 13:22:17;;;;;;;39.2;34.2;;;;;;;13.2;74.54;98064;;;;
2024/03/01 13:33:18;;;;;;;39.2;34.2;;;;;;;13.09;75.08;98066;;;;
2024/03/01 13:43:18;;;;;;;49.1;43.4;;;;;;;12.78;76.44;98072;;;;
2024/03/01 13:53:18;;;;;;;49.1;43.4;;;;;;;12.74;77.43;98068;;;;
2024/03/01 14:04:18;;;;;;;49.1;43.4;;;;;;;12.41;79.11;98056;;;;
2024/03/01 14:15:19;;;;;;;57.8;45.8;;;;;;;12.22;80.49;98054;;;;
2024/03/01 14:26:17;;;;;;;57.8;45.8;;;;;;;12.02;81.84;98048;;;;
2024/03/01 14:36:19;;;;;;;50.4;42.2;;;;;;;12.15;82.05;98042;;;;
2024/03/01 14:46:17;;;;;;;50.4;42.2;;;;;;;11.88;82.62;98048;;;;
2024/03/01 14:57:18;;;;;;;50.4;42.2;;;;;;;11.9;82.1;98048;;;;
2024/03/01 15:07:19;;;;;;;49.1;40.9;;;;;;;11.82;82.41;98048;;;;
2024/03/01 15:17:18;;;;;;;49.1;40.9;;;;;;;11.79;82.39;98046;;;;
2024/03/01 15:28:18;;;;;;;49.1;40.9;;;;;;;11.61;82.68;98040;;;;
2024/03/01 15:39:18;;;;;;;48.2;35.7;;;;;;;11.46;83.16;98040;;;;
2024/03/01 15:50:17;;;;;;;48.2;35.7;;;;;;;11.45;83.29;98038;;;;
2024/03/01 16:01:18;;;;;;;48.2;35.7;;;;;;;11.52;83.1;98040;;;;
2024/03/01 16:12:17;;;;;;;39.9;28.8;;;;;;;11.18;83.75;98044;;;;
2024/03/01 16:23:17;;;;;;;39.9;28.8;;;;;;;11.03;84.17;98052;;;;
2024/03/01 16:33:17;;;;;;;39.9;28.8;;;;;;;10.8;84.78;98058;;;;
2024/03/01 16:44:17;;;;;;;38;27.1;;;;;;;10.81;84.53;98068;;;;
2024/03/01 16:55:17;;;;;;;38;27.1;;;;;;;10.74;84.65;98068;;;;
2024/03/01 17:05:18;;;;;;;38;27.1;;;;;;;10.68;84.71;98072;;;;
2024/03/01 17:16:17;;;;;;;39.3;28;;;;;;;10.5;85.32;98064;;;;
2024/03/01 17:27:18;;;;;;;39.3;28;;;;;;;10.4;85.18;98072;;;;
2024/03/01 17:38:17;;;;;;;68.1;41.9;;;;;;;10.08;86.43;98084;;;;
2024/03/01 17:48:18;;;;;;;68.1;41.9;;;;;;;9.97;86.55;98080;;;;
2024/03/01 17:59:18;;;;;;;68.1;41.9;;;;;;;9.9;86.92;98094;;;;
2024/03/01 18:10:19;;;;;;;48;28.1;;;;;;;9.91;86.87;98111.666666667;;;;
2024/03/01 18:20:18;;;;;;;48;28.1;;;;;;;9.72;87.39;98111.666666667;;;;
2024/03/01 18:31:20;;;;;;;48;28.1;;;;;;;9.66;87.84;98110;;;;
2024/03/01 18:41:18;;;;;;;42.8;27.3;;;;;;;9.76;87.23;98108.333333333;;;;
2024/03/01 18:52:18;;;;;;;42.8;27.3;;;;;;;9.51;87.66;98110;;;;
2024/03/01 19:03:18;;;;;;;42.8;27.3;;;;;;;9.14;88.84;98103.333333333;;;;
2024/03/01 19:13:17;;;;;;;40.7;24.9;;;;;;;9.1;88.41;98096.666666667;;;;
2024/03/01 19:23:18;;;;;;;40.7;24.9;;;;;;;8.85;89.14;98108.333333333;;;;
2024/03/01 19:33:20;;;;;;;40.7;24.9;;;;;;;8.98;88.86;98125;;;;
2024/03/01 19:43:18;;;;;;;42.2;27.5;;;;;;;8.92;88.58;98123.333333333;;;;
2024/03/01 19:53:18;;;;;;;42.2;27.5;;;;;;;8.89;89.11;98130;;;;
2024/03/01 20:04:18;;;;;;;42.2;27.5;;;;;;;8.99;88.31;98135;;;;
2024/03/01 20:14:18;;;;;;;37.3;24.5;;;;;;;8.95;88.35;98141.666666667;;;;
2024/03/01 20:24:18;;;;;;;37.3;24.5;;;;;;;8.9;87.96;98140;;;;
2024/03/01 20:34:18;;;;;;;37.3;24.5;;;;;;;8.76;88.28;98135;;;;
2024/03/01 20:45:18;;;;;;;39.3;25.4;;;;;;;8.91;87.88;98125;;;;
2024/03/01 20:55:18;;;;;;;39.3;25.4;;;;;;;8.84;87.23;98120;;;;
2024/03/01 21:06:18;;;;;;;37;25.1;;;;;;;8.4;88.76;98126.666666667;;;;
2024/03/01 21:17:18;;;;;;;37;25.1;;;;;;;8.29;89.14;98123.333333333;;;;
2024/03/01 21:28:18;;;;;;;37;25.1;;;;;;;8.02;89.38;98118.333333333;;;;
2024/03/01 21:38:18;;;;;;;41.3;26.3;;;;;;;8.1;88.54;98131.666666667;;;;
2024/03/01 21:48:18;;;;;;;41.3;26.3;;;;;;;7.96;88.03;98123.333333333;;;;
2024/03/01 21:58:18;;;;;;;41.3;26.3;;;;;;;7.76;87.94;98120;;;;
2024/03/01 22:09:18;;;;;;;38.2;22.4;;;;;;;7.53;88.25;98116.666666667;;;;
2024/03/01 22:19:18;;;;;;;38.2;22.4;;;;;;;7.1;90.02;98095;;;;
2024/03/01 22:29:19;;;;;;;38.2;22.4;;;;;;;6.99;90.38;98088.333333333;;;;
2024/03/01 22:40:18;;;;;;;37.8;22.5;;;;;;;6.89;91.49;98101.666666667;;;;
2024/03/01 22:50:18;;;;;;;37.8;22.5;;;;;;;6.91;91.02;98103.333333333;;;;
2024/03/01 23:01:18;;;;;;;37.8;22.5;;;;;;;6.79;91.22;98105;;;;
2024/03/01 23:12:18;;;;;;;38.2;21.9;;;;;;;6.65;91.01;98116.666666667;;;;
2024/03/01 23:22:23;;;;;;;38.2;21.9;;;;;;;6.52;91.16;98095;;;;
2024/03/01 23:32:18;;;;;;;38.2;21.9;;;;;;;6.38;91.93;98090;;;;
2024/03/01 23:42:18;;;;;;;39;23.1;;;;;;;6.41;92.14;98096.666666667;;;;
2024/03/01 23:53:18;;;;;;;39;23.1;;;;;;;6.45;91.8;98110;;;;
